createdAt,value
2022-11-20T00:04:30.159Z,95651.09
2022-11-20T00:09:32.414Z,95647.06
2022-11-20T00:14:34.694Z,95623.69
2022-11-20T00:19:36.890Z,95606.97
2022-11-20T00:24:43.035Z,95631.88
2022-11-20T00:29:45.588Z,95636.19
2022-11-20T00:34:47.759Z,95608.09
2022-11-20T00:39:49.775Z,95623.13
2022-11-20T00:44:51.936Z,95625.09
2022-11-20T00:49:54.144Z,95616.97
2022-11-20T00:54:56.256Z,95613.78
2022-11-20T00:59:58.305Z,95642.19
2022-11-20T01:05:00.496Z,95618.63
2022-11-20T01:10:02.689Z,95605.53
2022-11-20T01:15:05.344Z,95600.75
2022-11-20T01:20:09.168Z,95607.81
2022-11-20T01:25:16.073Z,95619.59
2022-11-20T01:30:18.285Z,95599.91
2022-11-20T01:35:21.410Z,95581.59
2022-11-20T01:40:23.650Z,95549.09
2022-11-20T01:45:57.542Z,95551.47
2022-11-20T01:51:00.681Z,95565.38
2022-11-20T01:56:07.065Z,95569.88
2022-11-20T02:01:10.005Z,95551.25
2022-11-20T02:06:25.267Z,95573.00
2022-11-20T02:11:27.503Z,95562.66
2022-11-20T02:16:38.274Z,95584.88
2022-11-20T02:21:46.634Z,95595.38
2022-11-20T02:26:54.502Z,95609.84
2022-11-20T02:31:59.265Z,95594.59
2022-11-20T02:37:01.787Z,95585.31
2022-11-20T02:42:03.981Z,95567.38
2022-11-20T02:47:06.074Z,95559.50
2022-11-20T02:52:08.275Z,95542.88
2022-11-20T02:57:10.479Z,95528.19
2022-11-20T03:02:12.906Z,95536.91
2022-11-20T03:07:15.034Z,95544.22
2022-11-20T03:12:17.105Z,95502.09
2022-11-20T03:17:19.346Z,95526.19
2022-11-20T03:22:21.615Z,95532.75
2022-11-20T03:27:23.877Z,95533.91
2022-11-20T03:32:26.179Z,95508.75
2022-11-20T03:37:28.252Z,95533.78
2022-11-20T03:42:48.735Z,95551.38
2022-11-20T03:47:51.048Z,95512.94
2022-11-20T03:52:53.130Z,95526.47
2022-11-20T03:57:55.281Z,95542.00
2022-11-20T04:03:01.594Z,95579.41
2022-11-20T04:08:04.039Z,95575.88
2022-11-20T04:13:06.316Z,95573.94
2022-11-20T04:18:08.465Z,95590.31
2022-11-20T04:23:10.556Z,95581.06
2022-11-20T04:28:12.908Z,95587.63
2022-11-20T04:33:15.141Z,95592.19
2022-11-20T04:38:17.489Z,95576.75
2022-11-20T04:43:19.540Z,95579.25
2022-11-20T04:48:21.812Z,95618.91
2022-11-20T04:53:25.272Z,95606.84
2022-11-20T04:58:27.471Z,95583.00
2022-11-20T05:03:29.570Z,95572.31
2022-11-20T05:08:32.914Z,95598.78
2022-11-20T05:13:35.764Z,95565.59
2022-11-20T05:18:38.736Z,95574.81
2022-11-20T05:23:42.021Z,95564.56
2022-11-20T05:28:44.399Z,95561.69
2022-11-20T05:33:47.000Z,95551.47
2022-11-20T05:38:51.190Z,95551.78
2022-11-20T05:43:53.868Z,95528.00
2022-11-20T05:48:56.204Z,95566.84
2022-11-20T05:53:59.738Z,95549.28
2022-11-20T05:59:02.038Z,95575.09
2022-11-20T06:04:04.193Z,95580.47
2022-11-20T06:09:06.391Z,95560.50
2022-11-20T06:14:08.656Z,95573.41
2022-11-20T06:19:10.927Z,95568.97
2022-11-20T06:24:13.428Z,95571.69
2022-11-20T06:29:15.522Z,95549.44
2022-11-20T06:34:17.709Z,95584.34
2022-11-20T06:39:24.155Z,95592.19
2022-11-20T06:44:26.846Z,95569.31
2022-11-20T06:49:28.929Z,95602.84
2022-11-20T06:54:31.001Z,95597.56
2022-11-20T06:59:33.192Z,95630.44
2022-11-20T07:04:35.231Z,95642.16
2022-11-20T07:09:37.344Z,95647.03
2022-11-20T07:14:39.488Z,95653.84
2022-11-20T07:19:41.727Z,95630.38
2022-11-20T07:24:46.114Z,95635.25
2022-11-20T07:29:48.690Z,95647.56
2022-11-20T07:34:50.789Z,95642.50
2022-11-20T07:39:53.160Z,95652.56
2022-11-20T07:44:55.498Z,95642.13
2022-11-20T07:49:57.837Z,95653.03
2022-11-20T07:55:00.191Z,95627.13
2022-11-20T08:00:02.528Z,95613.97
2022-11-20T08:05:14.217Z,95641.53
2022-11-20T08:10:17.486Z,95614.53
2022-11-20T08:15:19.840Z,95635.16
2022-11-20T08:20:22.158Z,95610.84
2022-11-20T08:25:24.464Z,95630.47
2022-11-20T08:30:27.513Z,95660.97
2022-11-20T08:35:29.943Z,95659.47
2022-11-20T08:40:32.709Z,95641.22
2022-11-20T08:45:35.566Z,95635.97
2022-11-20T08:50:37.844Z,95646.22
2022-11-20T08:55:40.864Z,95634.31
2022-11-20T09:00:43.134Z,95631.28
2022-11-20T09:05:45.359Z,95587.72
2022-11-20T09:10:52.251Z,95601.44
2022-11-20T09:16:02.912Z,95617.66
2022-11-20T09:21:11.495Z,95602.81
2022-11-20T09:26:15.202Z,95623.56
2022-11-20T09:31:27.101Z,95578.47
2022-11-20T09:36:29.542Z,95620.91
2022-11-20T09:41:40.426Z,95613.19
2022-11-20T09:46:54.710Z,95616.06
2022-11-20T09:52:02.264Z,95605.97
2022-11-20T09:57:13.910Z,95576.00
2022-11-20T10:02:28.155Z,95598.84
2022-11-20T10:07:44.449Z,95599.47
2022-11-20T10:12:58.776Z,95603.47
2022-11-20T10:18:03.834Z,95590.69
2022-11-20T10:23:44.869Z,95537.41
2022-11-20T10:29:08.942Z,95540.75
2022-11-20T10:34:44.813Z,95588.03
2022-11-20T10:39:59.109Z,95571.25
2022-11-20T10:45:26.945Z,95541.56
2022-11-20T10:50:32.172Z,95548.31
2022-11-20T10:55:55.722Z,95570.72
2022-11-20T11:01:18.020Z,95542.56
2022-11-20T11:06:27.513Z,95559.50
2022-11-20T11:11:36.229Z,95544.38
2022-11-20T11:16:54.530Z,95537.63
2022-11-20T11:21:58.140Z,95524.25
2022-11-20T11:27:16.424Z,95515.97
2022-11-20T11:32:22.611Z,95525.50
2022-11-20T11:37:25.707Z,95516.22
2022-11-20T11:42:29.437Z,95525.81
2022-11-20T11:47:43.984Z,95545.41
2022-11-20T11:53:03.791Z,95546.00
2022-11-20T11:58:25.970Z,95538.16
2022-11-20T12:04:12.177Z,95522.44
2022-11-20T12:09:14.811Z,95504.28
2022-11-20T12:14:27.917Z,95527.72
2022-11-20T12:19:35.836Z,95498.53
2022-11-20T12:24:54.504Z,95530.09
2022-11-20T12:30:12.837Z,95535.78
2022-11-20T12:35:33.793Z,95558.47
2022-11-20T12:40:39.012Z,95581.31
2022-11-20T12:45:59.673Z,95617.41
2022-11-20T12:51:40.366Z,95603.50
2022-11-20T12:56:48.704Z,95613.94
2022-11-20T13:02:17.784Z,95602.47
2022-11-20T13:07:22.810Z,95630.28
2022-11-20T13:12:35.240Z,95618.91
2022-11-20T13:18:02.288Z,95656.19
2022-11-20T13:23:05.278Z,95601.94
2022-11-20T13:28:13.697Z,95636.59
2022-11-20T13:33:30.973Z,95633.84
2022-11-20T13:38:48.657Z,95599.78
2022-11-20T13:43:51.482Z,95619.59
2022-11-20T13:48:55.556Z,95602.00
2022-11-20T13:54:16.354Z,95659.31
2022-11-20T13:59:27.464Z,95662.88
2022-11-20T14:04:39.430Z,95663.13
2022-11-20T14:09:57.875Z,95633.34
2022-11-20T14:15:00.818Z,95612.00
2022-11-20T14:20:13.838Z,95632.31
2022-11-20T14:25:16.845Z,95686.59
2022-11-20T14:30:22.525Z,95721.06
2022-11-20T14:35:29.411Z,95719.97
2022-11-20T14:40:39.347Z,95730.63
2022-11-20T14:45:41.840Z,95734.91
2022-11-20T14:50:44.104Z,95755.47
2022-11-20T14:56:04.627Z,95778.41
2022-11-20T15:01:08.821Z,95826.03
2022-11-20T15:06:13.991Z,95832.13
2022-11-20T15:11:24.975Z,95817.44
2022-11-20T15:16:29.066Z,95804.44
2022-11-20T15:21:31.274Z,95817.84
2022-11-20T15:26:35.060Z,95803.66
2022-11-20T15:31:42.696Z,95803.34
2022-11-20T15:36:45.451Z,95789.25
2022-11-20T15:41:48.235Z,95810.22
2022-11-20T15:46:50.426Z,95795.97
2022-11-20T15:51:54.051Z,95781.47
2022-11-20T15:56:56.371Z,95767.81
2022-11-20T16:01:58.731Z,95740.44
2022-11-20T16:07:01.050Z,95692.22
2022-11-20T16:12:03.594Z,95680.59
2022-11-20T16:17:05.879Z,95724.72
2022-11-20T16:22:07.898Z,95720.00
2022-11-20T16:27:11.646Z,95747.38
2022-11-20T16:32:13.932Z,95746.19
2022-11-20T16:37:16.294Z,95771.84
2022-11-20T16:42:18.448Z,95773.56
2022-11-20T16:47:20.976Z,95769.63
2022-11-20T16:52:24.485Z,95797.13
2022-11-20T16:57:30.005Z,95780.84
2022-11-20T17:02:32.410Z,95807.06
2022-11-20T17:07:34.784Z,95799.44
2022-11-20T17:12:36.976Z,95759.22
2022-11-20T17:17:39.290Z,95794.41
2022-11-20T17:22:41.485Z,95736.59
2022-11-20T17:27:43.615Z,95722.91
2022-11-20T17:32:47.217Z,95689.94
2022-11-20T17:37:49.487Z,95717.88
2022-11-20T17:42:51.776Z,95709.59
2022-11-20T17:47:54.094Z,95721.53
2022-11-20T17:52:56.398Z,95724.50
2022-11-20T17:58:03.041Z,95705.56
2022-11-20T18:03:05.566Z,95690.69
2022-11-20T18:08:07.656Z,95703.94
2022-11-20T18:13:09.760Z,95684.63
2022-11-20T18:18:12.058Z,95694.06
2022-11-20T18:23:14.359Z,95655.38
2022-11-20T18:28:16.448Z,95661.34
2022-11-20T18:33:18.892Z,95714.06
2022-11-20T18:38:21.096Z,95643.91
2022-11-20T18:43:41.879Z,95613.31
2022-11-20T18:48:44.184Z,95599.00
2022-11-20T18:53:47.666Z,95606.56
2022-11-20T18:58:49.980Z,95587.31
2022-11-20T19:03:52.299Z,95602.50
2022-11-20T19:08:54.555Z,95595.16
2022-11-20T19:13:56.800Z,95619.16
2022-11-20T19:19:06.423Z,95603.75
2022-11-20T19:24:09.427Z,95604.19
2022-11-20T19:29:14.696Z,95637.63
2022-11-20T19:39:37.341Z,95614.44
2022-11-20T19:44:39.584Z,95604.19
2022-11-20T19:49:42.356Z,95609.72
2022-11-20T19:54:44.446Z,95601.03
2022-11-20T19:59:46.685Z,95605.94
2022-11-20T20:04:48.920Z,95626.88
2022-11-20T20:09:51.021Z,95633.28
2022-11-20T20:14:53.492Z,95584.91
2022-11-20T20:19:55.747Z,95562.38
2022-11-20T20:24:57.809Z,95543.97
2022-11-20T20:29:59.970Z,95530.69
2022-11-20T20:35:02.676Z,95515.81
2022-11-20T20:40:05.550Z,95548.28
2022-11-20T20:45:08.271Z,95564.81
2022-11-20T20:50:12.478Z,95555.59
2022-11-20T20:55:17.769Z,95515.59
2022-11-20T21:00:20.139Z,95495.69
2022-11-20T21:05:22.272Z,95489.81
2022-11-20T21:10:24.721Z,95472.91
2022-11-20T21:15:26.947Z,95455.19
2022-11-20T21:20:47.559Z,95468.66
2022-11-20T21:25:49.813Z,95486.25
2022-11-20T21:30:52.043Z,95430.94
2022-11-20T21:35:54.314Z,95436.66
2022-11-20T21:40:59.885Z,95442.06
2022-11-20T21:46:06.889Z,95413.13
2022-11-20T21:51:12.185Z,95407.13
2022-11-20T21:56:20.099Z,95413.78
2022-11-20T22:01:25.895Z,95359.22
2022-11-20T22:06:32.945Z,95386.09
2022-11-20T22:11:35.211Z,95354.59
2022-11-20T22:16:38.257Z,95349.16
2022-11-20T22:21:41.929Z,95339.09
2022-11-20T22:26:44.560Z,95310.31
2022-11-20T22:31:48.033Z,95295.06
2022-11-20T22:36:50.217Z,95247.00
2022-11-20T22:41:52.274Z,95233.13
2022-11-20T22:46:54.440Z,95261.31
2022-11-20T22:51:56.567Z,95273.50
2022-11-20T22:56:58.624Z,95239.72
2022-11-20T23:02:00.661Z,95191.16
2022-11-20T23:07:03.033Z,95143.84
2022-11-20T23:12:05.628Z,95203.53
2022-11-20T23:17:07.740Z,95166.97
2022-11-20T23:22:09.842Z,95161.06
2022-11-20T23:27:12.057Z,95117.63
2022-11-20T23:32:14.340Z,95067.84
2022-11-20T23:37:16.630Z,95050.78
2022-11-20T23:42:19.319Z,95053.69
2022-11-20T23:47:21.422Z,95049.03
2022-11-20T23:52:25.140Z,95007.28
2022-11-20T23:57:27.337Z,95011.84
